Time,TemperatureF,DewpointF,PressureIn,WindDirection,WindDirectionDegrees,WindSpeedMPH,WindSpeedGustMPH,Humidity,HourlyPrecipIn,Conditions,Clouds,dailyrainin,SoftwareType,DateUTC
2013-06-21 00:07:00,54.9,44.2,29.89,SE,135,0.0,-999.0,67,-99.99,,,0.00,Acu-Link.com,2013-06-21 07:07:00,
2013-06-21 00:23:00,54.7,44.3,29.88,SE,135,0.0,-999.0,68,-99.99,,,0.00,Acu-Link.com,2013-06-21 07:23:00,
2013-06-21 00:38:00,54.0,44.8,29.89,SE,135,0.0,-999.0,71,-99.99,,,0.00,Acu-Link.com,2013-06-21 07:38:00,
2013-06-21 00:53:00,53.2,44.4,29.88,SE,135,0.0,-999.0,72,-99.99,,,0.00,Acu-Link.com,2013-06-21 07:53:00,
2013-06-21 01:08:00,53.8,45.7,29.89,SE,135,0.0,-999.0,74,-99.99,,,0.00,Acu-Link.com,2013-06-21 08:08:00,
2013-06-21 01:23:00,54.1,45.6,29.88,SE,135,0.0,-999.0,73,-99.99,,,0.00,Acu-Link.com,2013-06-21 08:23:00,
2013-06-21 01:38:00,53.8,45.7,29.89,SE,135,0.0,-999.0,74,-99.99,,,0.00,Acu-Link.com,2013-06-21 08:38:00,
2013-06-21 01:53:00,52.9,45.2,29.89,SE,135,0.0,-999.0,75,-99.99,,,0.00,Acu-Link.com,2013-06-21 08:53:00,
2013-06-21 02:08:00,52.2,44.9,29.89,SE,135,0.0,-999.0,76,-99.99,,,0.00,Acu-Link.com,2013-06-21 09:08:00,
2013-06-21 02:24:00,51.6,45.3,29.88,SE,135,2.7,-999.0,79,-99.99,,,0.00,Acu-Link.com,2013-06-21 09:24:00,
2013-06-21 02:39:00,51.4,45.1,29.88,SE,135,0.0,-999.0,79,-99.99,,,0.00,Acu-Link.com,2013-06-21 09:39:00,
2013-06-21 02:54:00,50.9,44.6,29.89,SE,135,0.0,-999.0,79,-99.99,,,0.00,Acu-Link.com,2013-06-21 09:54:00,
2013-06-21 03:09:00,50.7,44.8,29.88,SE,135,0.0,-999.0,80,-99.99,,,0.00,Acu-Link.com,2013-06-21 10:09:00,
2013-06-21 03:24:00,50.2,44.6,29.88,SE,135,0.0,-999.0,81,-99.99,,,0.00,Acu-Link.com,2013-06-21 10:24:00,
2013-06-21 03:40:00,49.3,43.7,29.88,SE,135,0.0,-999.0,81,-99.99,,,0.00,Acu-Link.com,2013-06-21 10:40:00,
2013-06-21 03:55:00,49.1,44.5,29.87,SE,135,2.2,-999.0,84,-99.99,,,0.00,Acu-Link.com,2013-06-21 10:55:00,
2013-06-21 04:10:00,48.4,43.5,29.87,SE,135,0.0,-999.0,83,-99.99,,,0.00,Acu-Link.com,2013-06-21 11:10:00,
2013-06-21 04:25:00,48.0,44.0,29.88,SE,135,0.0,-999.0,86,-99.99,,,0.00,Acu-Link.com,2013-06-21 11:25:00,
2013-06-21 04:41:00,48.2,44.5,29.88,SE,135,0.0,-999.0,87,-99.99,,,0.00,Acu-Link.com,2013-06-21 11:41:00,
2013-06-21 04:56:00,47.7,43.1,29.88,SE,135,0.0,-999.0,84,-99.99,,,0.00,Acu-Link.com,2013-06-21 11:56:00,
2013-06-21 05:11:00,47.5,43.5,29.89,SE,135,0.0,-999.0,86,-99.99,,,0.00,Acu-Link.com,2013-06-21 12:11:00,
2013-06-21 05:26:00,47.3,43.6,29.89,SE,135,1.7,-999.0,87,-99.99,,,0.00,Acu-Link.com,2013-06-21 12:26:00,
2013-06-21 05:42:00,46.2,42.8,29.90,SE,135,0.0,-999.0,88,-99.99,,,0.00,Acu-Link.com,2013-06-21 12:42:00,
2013-06-21 05:57:00,47.3,43.9,29.90,SE,135,0.0,-999.0,88,-99.99,,,0.00,Acu-Link.com,2013-06-21 12:57:00,
2013-06-21 06:12:00,46.4,43.0,29.90,SE,135,0.0,-999.0,88,-99.99,,,0.00,Acu-Link.com,2013-06-21 13:12:00,
2013-06-21 06:28:00,47.1,43.7,29.90,SE,135,0.0,-999.0,88,-99.99,,,0.00,Acu-Link.com,2013-06-21 13:28:00,
2013-06-21 06:43:00,48.2,44.5,29.90,SE,135,0.0,-999.0,87,-99.99,,,0.00,Acu-Link.com,2013-06-21 13:43:00,
2013-06-21 06:58:00,50.9,46.6,29.90,SE,135,0.0,-999.0,85,-99.99,,,0.00,Acu-Link.com,2013-06-21 13:58:00,
2013-06-21 07:14:00,51.1,46.1,29.90,SE,135,0.0,-999.0,83,-99.99,,,0.00,Acu-Link.com,2013-06-21 14:14:00,
2013-06-21 07:29:00,54.3,49.2,29.91,SE,135,0.0,-999.0,83,-99.99,,,0.00,Acu-Link.com,2013-06-21 14:29:00,
2013-06-21 07:44:00,55.8,50.4,29.91,SE,135,0.0,-999.0,82,-99.99,,,0.00,Acu-Link.com,2013-06-21 14:44:00,
2013-06-21 07:59:00,56.5,50.1,29.93,SE,135,0.0,-999.0,79,-99.99,,,0.00,Acu-Link.com,2013-06-21 14:59:00,
2013-06-21 08:15:00,56.8,50.7,29.92,SE,135,0.0,-999.0,80,-99.99,,,0.00,Acu-Link.com,2013-06-21 15:15:00,
2013-06-21 08:30:00,58.6,50.3,29.93,ESE,112,0.0,-999.0,74,-99.99,,,0.00,Acu-Link.com,2013-06-21 15:30:00,
2013-06-21 08:45:00,62.1,51.4,29.93,ESE,112,0.0,-999.0,68,-99.99,,,0.00,Acu-Link.com,2013-06-21 15:45:00,
2013-06-21 09:00:00,63.7,50.9,29.93,ESE,112,2.2,-999.0,63,-99.99,,,0.00,Acu-Link.com,2013-06-21 16:00:00,
2013-06-21 09:15:00,68.9,51.1,29.92,ESE,112,4.2,-999.0,53,-99.99,,,0.00,Acu-Link.com,2013-06-21 16:15:00,
2013-06-21 09:31:00,73.9,52.4,29.92,ESE,112,1.7,-999.0,47,-99.99,,,0.00,Acu-Link.com,2013-06-21 16:31:00,
2013-06-21 09:46:00,72.1,51.3,29.91,ESE,112,2.7,-999.0,48,-99.99,,,0.00,Acu-Link.com,2013-06-21 16:46:00,
2013-06-21 10:16:00,79.0,52.6,29.91,ESE,112,0.0,-999.0,40,-99.99,,,0.00,Acu-Link.com,2013-06-21 17:16:00,
2013-06-21 10:31:00,77.2,51.7,29.91,WNW,292,1.1,-999.0,41,-99.99,,,0.00,Acu-Link.com,2013-06-21 17:31:00,
2013-06-21 10:47:00,76.3,50.9,29.90,North,0,1.1,-999.0,41,-99.99,,,0.00,Acu-Link.com,2013-06-21 17:47:00,
2013-06-21 11:02:00,76.1,50.0,29.89,West,270,2.2,-999.0,40,-99.99,,,0.00,Acu-Link.com,2013-06-21 18:02:00,
2013-06-21 11:32:00,75.6,50.9,29.89,ESE,112,2.7,-999.0,42,-99.99,,,0.00,Acu-Link.com,2013-06-21 18:32:00,
2013-06-21 12:02:00,81.7,50.6,29.90,WSW,247,1.1,-999.0,34,-99.99,,,0.00,Acu-Link.com,2013-06-21 19:02:00,
2013-06-21 12:18:00,81.1,51.6,29.89,ESE,112,5.8,-999.0,36,-99.99,,,0.00,Acu-Link.com,2013-06-21 19:18:00,
2013-06-21 12:33:00,79.2,51.4,29.90,North,0,3.2,-999.0,38,-99.99,,,0.00,Acu-Link.com,2013-06-21 19:33:00,
2013-06-21 13:03:00,82.6,54.4,29.90,ESE,112,4.2,-999.0,38,-99.99,,,0.00,Acu-Link.com,2013-06-21 20:03:00,
2013-06-21 13:18:00,81.3,54.6,29.90,North,0,8.3,-999.0,40,-99.99,,,0.00,Acu-Link.com,2013-06-21 20:18:00,
2013-06-21 13:33:00,84.7,55.5,29.89,NNW,337,5.3,-999.0,37,-99.99,,,0.00,Acu-Link.com,2013-06-21 20:33:00,
2013-06-21 14:04:00,85.3,54.5,29.89,NNE,22,1.7,-999.0,35,-99.99,,,0.00,Acu-Link.com,2013-06-21 21:04:00,
2013-06-21 14:19:00,86.9,54.3,29.89,West,270,3.2,-999.0,33,-99.99,,,0.00,Acu-Link.com,2013-06-21 21:19:00,
2013-06-21 14:35:00,84.7,53.2,29.88,WNW,292,6.3,-999.0,34,-99.99,,,0.00,Acu-Link.com,2013-06-21 21:35:00,
2013-06-21 14:50:00,84.2,51.1,29.88,ESE,112,7.3,-999.0,32,-99.99,,,0.00,Acu-Link.com,2013-06-21 21:50:00,
2013-06-21 15:05:00,84.7,47.0,29.88,NE,45,9.4,-999.0,27,-99.99,,,0.00,Acu-Link.com,2013-06-21 22:05:00,
2013-06-21 15:20:00,84.2,45.6,29.88,SSE,157,4.7,-999.0,26,-99.99,,,0.00,Acu-Link.com,2013-06-21 22:20:00,
2013-06-21 15:36:00,84.4,45.7,29.88,West,270,3.2,-999.0,26,-99.99,,,0.00,Acu-Link.com,2013-06-21 22:36:00,
2013-06-21 15:51:00,83.5,43.9,29.87,WSW,247,5.3,-999.0,25,-99.99,,,0.00,Acu-Link.com,2013-06-21 22:51:00,
2013-06-21 16:06:00,82.2,44.9,29.86,SE,135,7.8,-999.0,27,-99.99,,,0.00,Acu-Link.com,2013-06-21 23:06:00,
2013-06-21 16:21:00,81.5,46.2,29.84,NW,315,4.7,-999.0,29,-99.99,,,0.00,Acu-Link.com,2013-06-21 23:21:00,
2013-06-21 16:36:00,82.8,46.3,29.84,WSW,247,2.7,-999.0,28,-99.99,,,0.00,Acu-Link.com,2013-06-21 23:36:00,
2013-06-21 16:52:00,83.3,38.0,29.83,WSW,247,2.2,-999.0,20,-99.99,,,0.00,Acu-Link.com,2013-06-21 23:52:00,
2013-06-21 17:07:00,81.9,47.4,29.83,WNW,292,2.7,-999.0,30,-99.99,,,0.00,Acu-Link.com,2013-06-22 00:07:00,
2013-06-21 17:22:00,80.4,47.8,29.81,WSW,247,4.7,-999.0,32,-99.99,,,0.00,Acu-Link.com,2013-06-22 00:22:00,
2013-06-21 17:38:00,80.8,47.3,29.81,NW,315,3.7,-999.0,31,-99.99,,,0.00,Acu-Link.com,2013-06-22 00:38:00,
2013-06-21 17:53:00,78.4,47.7,29.80,SE,135,7.3,-999.0,34,-99.99,,,0.00,Acu-Link.com,2013-06-22 00:53:00,
2013-06-21 18:08:00,78.1,47.4,29.80,WSW,247,3.2,-999.0,34,-99.99,,,0.00,Acu-Link.com,2013-06-22 01:08:00,
2013-06-21 18:23:00,78.6,46.3,29.80,NNW,337,5.3,-999.0,32,-99.99,,,0.00,Acu-Link.com,2013-06-22 01:23:00,
2013-06-21 18:38:00,77.4,48.3,29.80,NE,45,3.2,-999.0,36,-99.99,,,0.00,Acu-Link.com,2013-06-22 01:38:00,
2013-06-21 18:53:00,75.9,48.5,29.79,NW,315,4.2,-999.0,38,-99.99,,,0.00,Acu-Link.com,2013-06-22 01:53:00,
2013-06-21 19:09:00,75.6,48.9,29.80,West,270,3.7,-999.0,39,-99.99,,,0.00,Acu-Link.com,2013-06-22 02:09:00,
2013-06-21 19:24:00,75.2,47.8,29.80,West,270,3.2,-999.0,38,-99.99,,,0.00,Acu-Link.com,2013-06-22 02:24:00,
2013-06-21 19:39:00,71.6,46.6,29.79,South,180,1.7,-999.0,41,-99.99,,,0.00,Acu-Link.com,2013-06-22 02:39:00,
2013-06-21 19:54:00,70.3,47.3,29.78,SSW,202,1.1,-999.0,44,-99.99,,,0.00,Acu-Link.com,2013-06-22 02:54:00,
2013-06-21 20:10:00,68.7,46.5,29.78,SSE,157,0.0,-999.0,45,-99.99,,,0.00,Acu-Link.com,2013-06-22 03:10:00,
2013-06-21 20:25:00,66.6,45.2,29.80,SSE,157,0.0,-999.0,46,-99.99,,,0.00,Acu-Link.com,2013-06-22 03:25:00,
2013-06-21 20:40:00,65.7,45.5,29.80,SSE,157,0.0,-999.0,48,-99.99,,,0.00,Acu-Link.com,2013-06-22 03:40:00,
2013-06-21 20:55:00,63.5,45.6,29.79,SSE,157,0.0,-999.0,52,-99.99,,,0.00,Acu-Link.com,2013-06-22 03:55:00,
2013-06-21 21:11:00,62.2,45.3,29.80,SSE,157,0.0,-999.0,54,-99.99,,,0.00,Acu-Link.com,2013-06-22 04:11:00,
2013-06-21 21:26:00,62.2,47.2,29.81,SSE,157,0.0,-999.0,58,-99.99,,,0.00,Acu-Link.com,2013-06-22 04:26:00,
2013-06-21 21:41:00,60.8,46.8,29.81,SSE,157,0.0,-999.0,60,-99.99,,,0.00,Acu-Link.com,2013-06-22 04:41:00,
2013-06-21 21:57:00,59.9,46.4,29.82,SSE,157,0.0,-999.0,61,-99.99,,,0.00,Acu-Link.com,2013-06-22 04:57:00,
2013-06-21 22:12:00,58.8,45.8,29.82,SSE,157,0.0,-999.0,62,-99.99,,,0.00,Acu-Link.com,2013-06-22 05:12:00,
2013-06-21 22:27:00,58.8,46.6,29.82,SSE,157,0.0,-999.0,64,-99.99,,,0.00,Acu-Link.com,2013-06-22 05:27:00,
2013-06-21 22:42:00,58.3,46.2,29.82,SSE,157,0.0,-999.0,64,-99.99,,,0.00,Acu-Link.com,2013-06-22 05:42:00,
2013-06-21 22:58:00,57.7,46.4,29.82,SSE,157,0.0,-999.0,66,-99.99,,,0.00,Acu-Link.com,2013-06-22 05:58:00,
2013-06-21 23:13:00,56.8,46.0,29.83,SSE,157,0.0,-999.0,67,-99.99,,,0.00,Acu-Link.com,2013-06-22 06:13:00,
2013-06-21 23:28:00,55.6,45.6,29.83,SSE,157,0.0,-999.0,69,-99.99,,,0.00,Acu-Link.com,2013-06-22 06:28:00,
2013-06-21 23:43:00,55.9,46.6,29.83,SSE,157,0.0,-999.0,71,-99.99,,,0.00,Acu-Link.com,2013-06-22 06:43:00,
2013-06-21 23:59:00,55.4,46.9,29.83,SSE,157,0.0,-999.0,73,-99.99,,,0.00,Acu-Link.com,2013-06-22 06:59:00,